Time;durP1;ratioP1;P1;durP2;ratioP2;P2;SDS_P1;SDS_P2;PMS_P1;PMS_P2;Temp;Humidity;BMP_temperature;BMP_pressure;BME280_temperature;BME280_humidity;BME280_pressure;Samples;Min_cycle;Max_cycle;Signal;HPM_P1;HPM_P2
2024/01/07 00:01:23;;;;;;;10.70;8.10;;;;;;;;;;4927469;29;20180;-87
2024/01/07 00:04:27;;;;;;;15.40;9.17;;;;;;;;;;4939645;29;20184;-87
2024/01/07 00:07:32;;;;;;;13.00;8.80;;;;;;;;;;4937439;29;20557;-87
2024/01/07 00:10:37;;;;;;;16.07;9.60;;;;;;;;;;4937928;29;20185;-87
2024/01/07 00:13:41;;;;;;;13.17;9.17;;;;;;;;;;4938026;29;20196;-86
2024/01/07 00:16:45;;;;;;;13.20;10.00;;;;;;;;;;4984046;28;20224;-86
2024/01/07 00:19:49;;;;;;;14.93;9.27;;;;;;;;;;4927337;29;20212;-86
2024/01/07 00:22:54;;;;;;;13.40;9.70;;;;;;;;;;4938532;29;20214;-86
2024/01/07 00:25:58;;;;;;;14.40;9.53;;;;;;;;;;4938684;29;20220;-86
2024/01/07 00:29:02;;;;;;;13.27;9.50;;;;;;;;;;4937994;29;20180;-86
2024/01/07 00:32:06;;;;;;;14.57;9.70;;;;;;;;;;4996518;28;20177;-86
2024/01/07 00:35:11;;;;;;;12.80;8.97;;;;;;;;;;4939425;29;20184;-86
2024/01/07 00:38:15;;;;;;;14.03;9.33;;;;;;;;;;4983599;28;20204;-86
2024/01/07 00:41:20;;;;;;;13.30;9.10;;;;;;;;;;4995413;28;20664;-86
2024/01/07 00:44:24;;;;;;;14.27;9.67;;;;;;;;;;4927857;29;20184;-86
2024/01/07 00:47:28;;;;;;;13.83;10.07;;;;;;;;;;4927342;29;20223;-86
2024/01/07 00:50:32;;;;;;;12.93;9.57;;;;;;;;;;4927390;29;20189;-86
2024/01/07 00:53:36;;;;;;;13.07;9.13;;;;;;;;;;4927870;29;20184;-87
2024/01/07 00:56:40;;;;;;;14.60;9.50;;;;;;;;;;4937626;29;20224;-86
2024/01/07 00:59:45;;;;;;;15.87;9.60;;;;;;;;;;4938016;29;20213;-87
2024/01/07 01:02:49;;;;;;;13.90;9.57;;;;;;;;;;4927555;29;20192;-87
2024/01/07 01:05:54;;;;;;;14.13;9.17;;;;;;;;;;4995610;28;20215;-86
2024/01/07 01:08:58;;;;;;;16.90;10.27;;;;;;;;;;4937572;29;20534;-86
2024/01/07 01:12:02;;;;;;;12.17;8.87;;;;;;;;;;4927131;29;20180;-86
2024/01/07 01:15:06;;;;;;;14.23;10.63;;;;;;;;;;4926972;29;20189;-86
2024/01/07 01:18:10;;;;;;;17.10;10.73;;;;;;;;;;4938196;29;20184;-86
2024/01/07 01:21:14;;;;;;;14.77;10.03;;;;;;;;;;4937834;29;20546;-86
2024/01/07 01:24:19;;;;;;;15.17;9.53;;;;;;;;;;4926663;29;20188;-86
2024/01/07 01:27:22;;;;;;;14.67;9.40;;;;;;;;;;4926422;29;20219;-86
2024/01/07 01:30:30;;;;;;;16.50;9.90;;;;;;;;;;4938512;29;20185;-87
2024/01/07 01:33:34;;;;;;;17.53;10.07;;;;;;;;;;4926910;29;20180;-87
2024/01/07 01:36:38;;;;;;;14.33;9.63;;;;;;;;;;4927026;29;20220;-87
2024/01/07 01:39:42;;;;;;;14.47;9.83;;;;;;;;;;4927304;29;20235;-86
2024/01/07 01:42:48;;;;;;;17.93;10.50;;;;;;;;;;4938614;29;20188;-86
2024/01/07 01:45:56;;;;;;;15.07;9.90;;;;;;;;;;4926613;29;20224;-86
2024/01/07 01:49:01;;;;;;;13.87;10.20;;;;;;;;;;4926113;29;20180;-86
2024/01/07 01:52:05;;;;;;;16.93;10.27;;;;;;;;;;4937987;29;20185;-86
2024/01/07 01:55:09;;;;;;;15.03;10.50;;;;;;;;;;4938878;29;20192;-86
2024/01/07 01:58:15;;;;;;;15.00;9.70;;;;;;;;;;4939204;29;20184;-86
2024/01/07 02:01:18;;;;;;;13.87;9.40;;;;;;;;;;4927324;29;20208;-86
2024/01/07 02:04:23;;;;;;;20.50;10.33;;;;;;;;;;4995708;28;20188;-87
2024/01/07 02:07:29;;;;;;;13.60;9.57;;;;;;;;;;4938386;29;20220;-86
2024/01/07 02:10:36;;;;;;;12.23;8.83;;;;;;;;;;4926689;29;20185;-87
2024/01/07 02:13:40;;;;;;;12.43;8.47;;;;;;;;;;4926868;29;20520;-86
2024/01/07 02:16:44;;;;;;;12.03;9.03;;;;;;;;;;4925636;29;20224;-86
2024/01/07 02:19:49;;;;;;;14.03;9.10;;;;;;;;;;4925480;29;20184;-86
2024/01/07 02:22:53;;;;;;;13.80;9.07;;;;;;;;;;4927036;29;20180;-85
2024/01/07 02:25:57;;;;;;;12.13;8.37;;;;;;;;;;4937786;29;20219;-86
2024/01/07 02:29:03;;;;;;;11.57;8.60;;;;;;;;;;4938225;29;20184;-87
2024/01/07 02:32:07;;;;;;;13.43;9.07;;;;;;;;;;4937146;29;20180;-86
2024/01/07 02:35:11;;;;;;;14.83;9.30;;;;;;;;;;4926259;29;20185;-86
2024/01/07 02:38:17;;;;;;;11.60;8.77;;;;;;;;;;4995074;28;20212;-86
2024/01/07 02:41:25;;;;;;;14.77;9.40;;;;;;;;;;4926528;29;20545;-86
2024/01/07 02:44:29;;;;;;;13.97;8.97;;;;;;;;;;4936944;29;20184;-86
2024/01/07 02:47:34;;;;;;;14.67;9.57;;;;;;;;;;4925855;29;20250;-86
2024/01/07 02:50:38;;;;;;;12.70;9.00;;;;;;;;;;4937586;29;20181;-87
2024/01/07 02:53:42;;;;;;;14.57;8.90;;;;;;;;;;4926275;29;20656;-86
2024/01/07 02:56:47;;;;;;;13.93;9.00;;;;;;;;;;4926328;29;20220;-86
2024/01/07 02:59:51;;;;;;;12.03;8.33;;;;;;;;;;4925750;29;20184;-86
2024/01/07 03:02:55;;;;;;;13.20;8.57;;;;;;;;;;4928716;29;20184;-86
2024/01/07 03:05:59;;;;;;;14.20;8.60;;;;;;;;;;4929189;29;20220;-87
2024/01/07 03:09:04;;;;;;;13.80;8.10;;;;;;;;;;4928967;29;20188;-86
2024/01/07 03:12:07;;;;;;;14.30;8.90;;;;;;;;;;4950829;29;20177;-86
2024/01/07 03:15:12;;;;;;;11.67;7.97;;;;;;;;;;4986350;28;20180;-86
2024/01/07 03:18:16;;;;;;;18.10;9.33;;;;;;;;;;4938732;29;20188;-86
2024/01/07 03:21:22;;;;;;;11.00;8.13;;;;;;;;;;4939803;29;20668;-86
2024/01/07 03:24:26;;;;;;;11.30;8.50;;;;;;;;;;4940262;29;20184;-86
2024/01/07 03:27:30;;;;;;;16.07;9.17;;;;;;;;;;4938742;29;20228;-86
2024/01/07 03:30:34;;;;;;;13.67;9.00;;;;;;;;;;4939832;29;20192;-87
2024/01/07 03:33:39;;;;;;;14.63;9.07;;;;;;;;;;4940438;29;20181;-87
2024/01/07 03:36:44;;;;;;;12.27;9.13;;;;;;;;;;4940181;29;20216;-86
2024/01/07 03:39:49;;;;;;;13.30;8.60;;;;;;;;;;4939133;29;20208;-86
2024/01/07 03:42:53;;;;;;;15.13;9.23;;;;;;;;;;4928479;29;20176;-86
2024/01/07 03:45:57;;;;;;;12.27;8.77;;;;;;;;;;4939491;29;20220;-86
2024/01/07 03:49:01;;;;;;;14.03;9.40;;;;;;;;;;4996688;28;20188;-86
2024/01/07 03:52:06;;;;;;;15.37;9.90;;;;;;;;;;4939239;29;20177;-87
2024/01/07 03:55:11;;;;;;;15.87;9.50;;;;;;;;;;4938903;29;20184;-86
2024/01/07 03:58:15;;;;;;;13.87;9.73;;;;;;;;;;4938171;29;20184;-86
2024/01/07 04:01:19;;;;;;;12.60;9.17;;;;;;;;;;4939010;29;20208;-86
2024/01/07 04:04:23;;;;;;;13.03;9.50;;;;;;;;;;4996038;28;20189;-86
2024/01/07 04:07:27;;;;;;;12.93;9.30;;;;;;;;;;4926998;29;20250;-86
2024/01/07 04:10:31;;;;;;;16.17;9.97;;;;;;;;;;4939177;29;20180;-86
2024/01/07 04:13:36;;;;;;;12.97;9.40;;;;;;;;;;4939127;29;20640;-86
2024/01/07 04:16:40;;;;;;;12.93;9.20;;;;;;;;;;4995782;28;20227;-86
2024/01/07 04:19:44;;;;;;;15.03;9.67;;;;;;;;;;4926917;29;20189;-85
2024/01/07 04:22:48;;;;;;;14.23;9.30;;;;;;;;;;4936634;29;20522;-85
2024/01/07 04:25:54;;;;;;;13.53;9.67;;;;;;;;;;4936916;29;20220;-86
2024/01/07 04:28:58;;;;;;;15.40;9.47;;;;;;;;;;4938150;29;20192;-86
2024/01/07 04:32:02;;;;;;;12.40;9.10;;;;;;;;;;4937246;29;20184;-86
2024/01/07 04:35:07;;;;;;;13.20;9.30;;;;;;;;;;4937773;29;20204;-86
2024/01/07 04:38:11;;;;;;;13.30;9.57;;;;;;;;;;4937263;29;20212;-86
2024/01/07 04:41:15;;;;;;;14.13;9.23;;;;;;;;;;4995133;28;20216;-86
2024/01/07 04:44:19;;;;;;;13.03;9.70;;;;;;;;;;4937335;29;20180;-86
2024/01/07 04:47:30;;;;;;;12.97;9.27;;;;;;;;;;4937548;29;20231;-86
2024/01/07 04:50:33;;;;;;;12.17;9.40;;;;;;;;;;4937896;29;20184;-87
2024/01/07 04:53:37;;;;;;;12.60;8.77;;;;;;;;;;4939485;29;20188;-82
2024/01/07 04:56:42;;;;;;;14.13;10.20;;;;;;;;;;4939197;29;20220;-82
2024/01/07 04:59:47;;;;;;;13.37;9.03;;;;;;;;;;4938921;29;20188;-84
2024/01/07 05:02:51;;;;;;;11.23;8.87;;;;;;;;;;4939098;29;20181;-82
2024/01/07 05:05:55;;;;;;;10.20;8.13;;;;;;;;;;4929047;29;20216;-83
2024/01/07 05:09:00;;;;;;;12.97;9.30;;;;;;;;;;4939685;29;20185;-82
2024/01/07 05:12:04;;;;;;;11.83;8.00;;;;;;;;;;4929457;29;20192;-82
2024/01/07 05:15:09;;;;;;;14.00;9.70;;;;;;;;;;4929269;29;20189;-84
2024/01/07 05:18:13;;;;;;;12.33;8.93;;;;;;;;;;4940954;29;20184;-83
2024/01/07 05:21:20;;;;;;;12.33;9.30;;;;;;;;;;4928885;29;20212;-84
2024/01/07 05:24:25;;;;;;;13.33;9.17;;;;;;;;;;4996245;28;20180;-83
2024/01/07 05:27:29;;;;;;;11.30;8.93;;;;;;;;;;4997078;28;20224;-84
2024/01/07 05:30:33;;;;;;;16.67;9.60;;;;;;;;;;4918114;29;20531;-83
2024/01/07 05:33:38;;;;;;;15.03;9.93;;;;;;;;;;4938372;29;20192;-83
2024/01/07 05:36:42;;;;;;;14.47;9.33;;;;;;;;;;4939646;29;20220;-83
2024/01/07 05:39:47;;;;;;;12.40;9.10;;;;;;;;;;4939960;29;20212;-83
2024/01/07 05:42:51;;;;;;;12.97;9.40;;;;;;;;;;4938085;29;20208;-82
2024/01/07 05:45:55;;;;;;;11.87;8.27;;;;;;;;;;4937562;29;20220;-82
2024/01/07 05:48:59;;;;;;;12.50;8.70;;;;;;;;;;4939128;29;20184;-83
2024/01/07 05:52:04;;;;;;;12.33;8.97;;;;;;;;;;4939380;29;20184;-84
2024/01/07 05:55:08;;;;;;;12.10;8.73;;;;;;;;;;4996457;28;20184;-84
2024/01/07 05:58:12;;;;;;;13.13;9.00;;;;;;;;;;4996940;28;20188;-82
2024/01/07 06:01:20;;;;;;;11.03;8.60;;;;;;;;;;4938901;29;20680;-83
2024/01/07 06:04:24;;;;;;;11.20;7.50;;;;;;;;;;4937961;29;20181;-83
2024/01/07 06:07:29;;;;;;;9.20;6.73;;;;;;;;;;4927909;29;20219;-82
2024/01/07 06:10:33;;;;;;;8.87;6.83;;;;;;;;;;4996316;28;20184;-84
2024/01/07 06:13:37;;;;;;;10.43;7.00;;;;;;;;;;4938784;29;20556;-83
2024/01/07 06:16:42;;;;;;;9.73;7.60;;;;;;;;;;4937971;29;20220;-82
2024/01/07 06:19:46;;;;;;;11.30;8.00;;;;;;;;;;4939274;29;20180;-84
2024/01/07 06:22:51;;;;;;;12.87;7.60;;;;;;;;;;4939073;29;20212;-84
2024/01/07 06:25:55;;;;;;;9.90;7.13;;;;;;;;;;4949470;29;20228;-83
2024/01/07 06:28:59;;;;;;;9.13;7.03;;;;;;;;;;4927263;29;20180;-82
2024/01/07 06:32:03;;;;;;;9.23;6.70;;;;;;;;;;4936896;29;20540;-82
2024/01/07 06:35:08;;;;;;;11.53;6.63;;;;;;;;;;4994556;28;20184;-82
2024/01/07 06:38:12;;;;;;;9.97;6.97;;;;;;;;;;4937869;29;20604;-84
2024/01/07 06:41:16;;;;;;;8.97;6.77;;;;;;;;;;4984135;28;20608;-83
2024/01/07 06:44:20;;;;;;;10.00;6.97;;;;;;;;;;4938379;29;20552;-82
2024/01/07 06:47:24;;;;;;;11.17;7.53;;;;;;;;;;4937455;29;20801;-82
2024/01/07 06:50:29;;;;;;;13.00;7.60;;;;;;;;;;4926945;29;20541;-82
2024/01/07 06:53:35;;;;;;;9.80;6.87;;;;;;;;;;4939063;29;20544;-82
2024/01/07 06:56:39;;;;;;;12.27;7.37;;;;;;;;;;4915754;29;20616;-85
2024/01/07 06:59:43;;;;;;;12.07;8.47;;;;;;;;;;4938046;29;20540;-83
2024/01/07 07:02:47;;;;;;;11.03;7.87;;;;;;;;;;4927718;29;20604;-83
2024/01/07 07:05:51;;;;;;;28.13;15.20;;;;;;;;;;4984849;28;20615;-83
2024/01/07 07:08:56;;;;;;;12.97;8.00;;;;;;;;;;4929320;29;20540;-83
2024/01/07 07:12:00;;;;;;;13.30;7.03;;;;;;;;;;4970777;28;20577;-83
2024/01/07 07:15:04;;;;;;;10.60;8.13;;;;;;;;;;4923598;29;20545;-83
2024/01/07 07:18:08;;;;;;;14.33;9.07;;;;;;;;;;4919358;29;20565;-83
2024/01/07 07:21:13;;;;;;;11.97;8.00;;;;;;;;;;4908759;29;20903;-83
2024/01/07 07:24:17;;;;;;;14.83;8.30;;;;;;;;;;4918964;29;20545;-83
2024/01/07 07:27:21;;;;;;;12.63;8.27;;;;;;;;;;4917769;29;20625;-83
2024/01/07 07:30:26;;;;;;;12.73;8.97;;;;;;;;;;4908364;29;20546;-83
2024/01/07 07:33:30;;;;;;;14.57;9.70;;;;;;;;;;4918626;29;20546;-83
2024/01/07 07:36:34;;;;;;;12.90;9.03;;;;;;;;;;4919615;29;20636;-82
2024/01/07 07:39:38;;;;;;;20.37;11.10;;;;;;;;;;4908291;29;20660;-83
2024/01/07 07:42:43;;;;;;;19.90;11.13;;;;;;;;;;4907528;29;20621;-84
2024/01/07 07:45:47;;;;;;;18.27;10.00;;;;;;;;;;4907747;29;20621;-83
2024/01/07 07:48:53;;;;;;;13.37;9.13;;;;;;;;;;4921968;29;20517;-83
2024/01/07 07:51:57;;;;;;;15.43;9.67;;;;;;;;;;4911462;29;20562;-85
2024/01/07 07:55:01;;;;;;;15.20;9.97;;;;;;;;;;4912190;29;20185;-84
2024/01/07 07:58:05;;;;;;;17.00;9.50;;;;;;;;;;4911825;29;20553;-84
2024/01/07 08:01:09;;;;;;;12.40;8.83;;;;;;;;;;4922279;29;20549;-84
2024/01/07 08:04:13;;;;;;;15.43;10.07;;;;;;;;;;4923358;29;20534;-84
2024/01/07 08:07:18;;;;;;;14.83;10.13;;;;;;;;;;4914942;29;20650;-82
2024/01/07 08:10:22;;;;;;;13.30;9.67;;;;;;;;;;4926368;29;20541;-82
2024/01/07 08:13:27;;;;;;;15.60;10.70;;;;;;;;;;4912786;29;20181;-83
2024/01/07 08:16:31;;;;;;;27.60;16.10;;;;;;;;;;4923064;29;20624;-83
2024/01/07 08:19:36;;;;;;;20.10;11.50;;;;;;;;;;4924418;29;20542;-83
2024/01/07 08:22:40;;;;;;;17.63;11.47;;;;;;;;;;4924647;29;20597;-85
2024/01/07 08:25:45;;;;;;;19.53;11.80;;;;;;;;;;4927564;29;20633;-82
2024/01/07 08:29:14;;;;;;;16.23;10.93;;;;;;;;;;4914978;29;20549;-85
2024/01/07 08:32:22;;;;;;;18.07;11.00;;;;;;;;;;4903483;29;20181;-81
2024/01/07 08:35:27;;;;;;;14.63;10.40;;;;;;;;;;4925448;29;20535;-81
2024/01/07 08:38:32;;;;;;;17.20;10.97;;;;;;;;;;4914587;29;20685;-82
2024/01/07 08:41:36;;;;;;;19.47;11.53;;;;;;;;;;4915470;29;20541;-82
2024/01/07 08:44:40;;;;;;;14.40;10.67;;;;;;;;;;4923861;29;20189;-82
2024/01/07 08:47:44;;;;;;;19.83;10.47;;;;;;;;;;4923319;29;20654;-81
2024/01/07 08:50:50;;;;;;;17.80;10.60;;;;;;;;;;4923318;29;20635;-81
2024/01/07 08:53:57;;;;;;;16.40;10.93;;;;;;;;;;4923836;29;20542;-80
2024/01/07 08:57:02;;;;;;;17.97;10.97;;;;;;;;;;4924936;29;20693;-86
2024/01/07 09:00:10;;;;;;;20.87;13.27;;;;;;;;;;4927866;29;20197;-82
2024/01/07 09:03:16;;;;;;;22.60;13.27;;;;;;;;;;4922490;29;20621;-82
2024/01/07 09:06:32;;;;;;;18.07;11.23;;;;;;;;;;4923697;29;20653;-81
2024/01/07 09:09:37;;;;;;;18.53;13.03;;;;;;;;;;4919379;29;20541;-82
2024/01/07 09:12:52;;;;;;;20.17;10.97;;;;;;;;;;4940901;29;20554;-82
2024/01/07 09:16:04;;;;;;;17.33;11.47;;;;;;;;;;4919263;29;20213;-83
2024/01/07 09:19:23;;;;;;;16.67;10.63;;;;;;;;;;4926820;29;20186;-83
2024/01/07 09:22:51;;;;;;;19.30;10.63;;;;;;;;;;4973537;28;20601;-83
2024/01/07 09:25:57;;;;;;;15.57;9.57;;;;;;;;;;4896308;29;20625;-82
2024/01/07 09:29:10;;;;;;;19.70;11.10;;;;;;;;;;4915871;29;20565;-83
2024/01/07 09:32:27;;;;;;;16.57;10.67;;;;;;;;;;4920229;29;20534;-81
2024/01/07 09:35:43;;;;;;;19.23;10.60;;;;;;;;;;4918452;29;20553;-81
2024/01/07 09:39:15;;;;;;;14.43;9.57;;;;;;;;;;4919360;29;20201;-81
2024/01/07 09:46:01;;;;;;;20.07;10.00;;;;;;;;;;4917664;29;20636;-82
2024/01/07 09:49:06;;;;;;;20.63;10.27;;;;;;;;;;4917526;29;20569;-83
2024/01/07 09:52:12;;;;;;;16.60;10.03;;;;;;;;;;4904363;29;20537;-81
2024/01/07 09:55:30;;;;;;;13.37;8.07;;;;;;;;;;4902748;29;20549;-83
2024/01/07 09:58:34;;;;;;;12.57;8.13;;;;;;;;;;4916582;29;20539;-81
2024/01/07 10:01:41;;;;;;;14.07;8.70;;;;;;;;;;4928336;29;20549;-81
2024/01/07 10:04:48;;;;;;;13.60;8.00;;;;;;;;;;4925799;29;20554;-83
2024/01/07 10:07:55;;;;;;;15.33;8.73;;;;;;;;;;4924474;29;20561;-81
2024/01/07 10:11:02;;;;;;;15.27;8.27;;;;;;;;;;4903270;29;20562;-80
2024/01/07 10:14:06;;;;;;;12.90;8.17;;;;;;;;;;4904220;29;20557;-81
2024/01/07 10:17:18;;;;;;;15.40;9.37;;;;;;;;;;4928432;29;20628;-81
2024/01/07 10:20:22;;;;;;;21.17;10.73;;;;;;;;;;4906556;29;20554;-81
2024/01/07 10:23:26;;;;;;;15.50;9.50;;;;;;;;;;4938145;29;20607;-83
2024/01/07 10:26:32;;;;;;;17.33;10.73;;;;;;;;;;4917615;29;20625;-83
2024/01/07 10:29:36;;;;;;;17.10;10.17;;;;;;;;;;4927504;29;20545;-83
2024/01/07 10:32:43;;;;;;;15.53;9.77;;;;;;;;;;4928589;29;20542;-84
2024/01/07 10:36:01;;;;;;;15.10;9.17;;;;;;;;;;4961453;28;20636;-82
2024/01/07 10:39:05;;;;;;;14.50;8.50;;;;;;;;;;4977050;28;20617;-82
2024/01/07 10:42:11;;;;;;;12.87;8.23;;;;;;;;;;4916680;29;20550;-82
2024/01/07 10:45:15;;;;;;;12.87;8.43;;;;;;;;;;4972181;28;20546;-83
2024/01/07 10:48:20;;;;;;;14.20;9.17;;;;;;;;;;4915479;29;20904;-82
2024/01/07 10:51:27;;;;;;;12.00;8.80;;;;;;;;;;4905244;29;20545;-81
2024/01/07 10:54:33;;;;;;;14.47;8.70;;;;;;;;;;4927092;29;20545;-82
2024/01/07 10:57:47;;;;;;;11.73;8.53;;;;;;;;;;4926820;29;20625;-82
2024/01/07 11:00:52;;;;;;;9.90;6.90;;;;;;;;;;4904246;29;20550;-83
2024/01/07 11:04:22;;;;;;;10.63;7.33;;;;;;;;;;4917354;29;20597;-83
2024/01/07 11:07:37;;;;;;;12.13;7.47;;;;;;;;;;4906545;29;20616;-84
2024/01/07 11:10:57;;;;;;;13.23;7.20;;;;;;;;;;4917364;29;20549;-84
2024/01/07 11:14:02;;;;;;;10.90;7.17;;;;;;;;;;4929571;29;20557;-83
2024/01/07 11:17:07;;;;;;;14.00;8.47;;;;;;;;;;4906029;29;20624;-83
2024/01/07 11:20:21;;;;;;;14.47;8.77;;;;;;;;;;4938335;29;20549;-83
2024/01/07 11:23:27;;;;;;;27.97;14.07;;;;;;;;;;4931109;29;20593;-83
2024/01/07 11:26:31;;;;;;;17.23;10.30;;;;;;;;;;4909037;29;20624;-84
2024/01/07 11:29:35;;;;;;;13.17;9.33;;;;;;;;;;4909685;29;20537;-84
2024/01/07 11:32:41;;;;;;;13.93;8.87;;;;;;;;;;4929660;29;20541;-84
2024/01/07 11:35:59;;;;;;;12.37;8.10;;;;;;;;;;4937285;29;20624;-82
2024/01/07 11:39:04;;;;;;;13.40;9.00;;;;;;;;;;4916511;29;20617;-83
2024/01/07 11:42:08;;;;;;;11.53;8.13;;;;;;;;;;4926325;29;20545;-83
2024/01/07 11:45:13;;;;;;;14.90;9.50;;;;;;;;;;4906219;29;20529;-82
2024/01/07 11:48:18;;;;;;;15.03;9.13;;;;;;;;;;4907401;29;20569;-83
2024/01/07 11:51:27;;;;;;;22.53;12.50;;;;;;;;;;4931603;29;20546;-82
2024/01/07 11:54:35;;;;;;;15.47;10.00;;;;;;;;;;4922118;29;20545;-81
2024/01/07 11:57:39;;;;;;;13.10;8.90;;;;;;;;;;4906188;29;20617;-82
2024/01/07 16:55:31;;;;;;;16.10;9.10;;;;;;;;;;5111814;22;20666;-86
2024/01/07 16:59:51;;;;;;;17.17;10.63;;;;;;;;;;5083459;28;20902;-87
2024/01/07 17:02:55;;;;;;;16.07;9.83;;;;;;;;;;5078943;28;20541;-88
2024/01/07 17:06:02;;;;;;;18.13;10.83;;;;;;;;;;5054494;28;20527;-88
2024/01/07 17:09:07;;;;;;;15.37;9.83;;;;;;;;;;5065531;28;20545;-87
2024/01/07 17:12:11;;;;;;;18.03;10.17;;;;;;;;;;5053831;28;20554;-87
2024/01/07 17:15:15;;;;;;;20.97;10.03;;;;;;;;;;5053933;28;20633;-87
2024/01/07 17:18:20;;;;;;;19.40;10.20;;;;;;;;;;5064653;28;20573;-87
2024/01/07 17:21:24;;;;;;;17.00;10.37;;;;;;;;;;5065329;28;20545;-87
2024/01/07 17:24:32;;;;;;;18.63;9.73;;;;;;;;;;5065011;28;20656;-87
2024/01/07 17:27:36;;;;;;;18.87;10.23;;;;;;;;;;5065173;28;20555;-87
2024/01/07 17:30:41;;;;;;;16.37;10.03;;;;;;;;;;5053599;28;20550;-88
2024/01/07 17:33:45;;;;;;;15.23;9.63;;;;;;;;;;5064966;28;20640;-87
2024/01/07 17:36:49;;;;;;;21.97;11.00;;;;;;;;;;5042379;28;20546;-87
2024/01/07 17:39:53;;;;;;;16.50;10.30;;;;;;;;;;5065353;28;20553;-87
2024/01/07 17:43:01;;;;;;;13.37;9.00;;;;;;;;;;5077318;28;20557;-87
2024/01/07 17:46:09;;;;;;;19.37;10.20;;;;;;;;;;5065142;28;20539;-87
2024/01/07 17:49:13;;;;;;;14.60;8.90;;;;;;;;;;5065200;28;20561;-87
2024/01/07 17:52:17;;;;;;;15.70;9.40;;;;;;;;;;5053950;28;20530;-87
2024/01/07 17:55:21;;;;;;;17.67;9.07;;;;;;;;;;5053270;28;20633;-87
2024/01/07 17:58:26;;;;;;;14.33;8.03;;;;;;;;;;5064874;28;20903;-87
2024/01/07 18:01:30;;;;;;;13.47;7.23;;;;;;;;;;5053935;28;20543;-87
2024/01/07 18:04:34;;;;;;;12.97;8.20;;;;;;;;;;5076336;28;20653;-86
2024/01/07 18:07:39;;;;;;;16.03;8.00;;;;;;;;;;5053685;28;20880;-87
2024/01/07 18:10:43;;;;;;;12.93;7.77;;;;;;;;;;5053366;28;20534;-87
2024/01/07 18:13:47;;;;;;;12.93;6.90;;;;;;;;;;5053557;28;20621;-86
2024/01/07 18:16:52;;;;;;;13.87;7.87;;;;;;;;;;5042289;28;20554;-86
2024/01/07 18:19:56;;;;;;;12.57;7.33;;;;;;;;;;5077235;28;20554;-88
2024/01/07 18:23:00;;;;;;;11.17;6.63;;;;;;;;;;5041595;28;20538;-87
2024/01/07 18:26:04;;;;;;;13.13;7.07;;;;;;;;;;5065940;28;20597;-87
2024/01/07 18:29:11;;;;;;;11.83;7.50;;;;;;;;;;5053660;28;21109;-87
2024/01/07 18:32:15;;;;;;;12.37;7.60;;;;;;;;;;5077330;28;20559;-87
2024/01/07 18:35:24;;;;;;;13.27;7.30;;;;;;;;;;5065107;28;20610;-87
2024/01/07 18:38:29;;;;;;;12.83;6.77;;;;;;;;;;5064879;28;20545;-87
2024/01/07 18:41:34;;;;;;;12.47;6.77;;;;;;;;;;5053590;28;20558;-87
2024/01/07 18:44:38;;;;;;;11.97;6.57;;;;;;;;;;5053985;28;20645;-88
2024/01/07 18:47:43;;;;;;;12.70;7.20;;;;;;;;;;5053309;28;20542;-87
2024/01/07 18:50:47;;;;;;;11.40;7.50;;;;;;;;;;5064481;28;20538;-87
2024/01/07 18:53:51;;;;;;;10.37;6.53;;;;;;;;;;5063996;28;20637;-87
2024/01/07 18:56:56;;;;;;;10.73;6.93;;;;;;;;;;5052739;28;20530;-87
2024/01/07 19:00:00;;;;;;;12.97;7.73;;;;;;;;;;5064563;28;20538;-87
2024/01/07 19:03:04;;;;;;;11.23;6.77;;;;;;;;;;5053058;28;20558;-87
2024/01/07 19:06:08;;;;;;;13.20;6.83;;;;;;;;;;5064594;28;20585;-87
2024/01/07 19:09:12;;;;;;;13.87;7.97;;;;;;;;;;5052897;28;20546;-87
2024/01/07 19:12:18;;;;;;;13.77;7.57;;;;;;;;;;5075756;28;20550;-87
2024/01/07 19:15:24;;;;;;;15.77;7.50;;;;;;;;;;5064732;28;20625;-87
2024/01/07 19:18:29;;;;;;;11.63;6.83;;;;;;;;;;5064031;28;20559;-87
2024/01/07 19:21:33;;;;;;;12.20;7.83;;;;;;;;;;5052210;28;20884;-87
2024/01/07 19:24:37;;;;;;;14.87;8.53;;;;;;;;;;5063976;28;20646;-87
2024/01/07 19:27:42;;;;;;;20.17;10.63;;;;;;;;;;5064075;28;20553;-87
2024/01/07 19:30:47;;;;;;;18.27;10.47;;;;;;;;;;5063269;28;20549;-87
2024/01/07 19:33:51;;;;;;;14.87;8.80;;;;;;;;;;5063565;28;20620;-85
2024/01/07 19:36:56;;;;;;;19.83;11.43;;;;;;;;;;5040342;28;20872;-85
2024/01/07 19:40:02;;;;;;;14.17;8.80;;;;;;;;;;5063242;28;20542;-85
2024/01/07 19:43:06;;;;;;;12.57;8.30;;;;;;;;;;5065675;28;20542;-85
2024/01/07 19:46:10;;;;;;;13.93;8.17;;;;;;;;;;5055051;28;20598;-85
2024/01/07 19:49:14;;;;;;;16.60;9.83;;;;;;;;;;5066060;28;20549;-85
2024/01/07 19:52:18;;;;;;;14.67;8.90;;;;;;;;;;5066370;28;20534;-85
2024/01/07 19:55:23;;;;;;;14.93;8.93;;;;;;;;;;5066259;28;20637;-85
2024/01/07 19:58:27;;;;;;;11.90;7.20;;;;;;;;;;5055627;28;20545;-85
2024/01/07 20:01:31;;;;;;;13.47;8.77;;;;;;;;;;5055672;28;20538;-85
2024/01/07 20:04:36;;;;;;;16.83;8.77;;;;;;;;;;5078425;28;20625;-85
2024/01/07 20:07:40;;;;;;;11.67;8.37;;;;;;;;;;5079281;28;20538;-85
2024/01/07 20:10:45;;;;;;;13.17;7.43;;;;;;;;;;5066713;28;20876;-85
2024/01/07 20:13:50;;;;;;;10.97;7.57;;;;;;;;;;5066057;28;20626;-85
2024/01/07 20:16:55;;;;;;;10.93;7.13;;;;;;;;;;5044090;28;20542;-87
2024/01/07 20:20:00;;;;;;;13.80;7.53;;;;;;;;;;5078088;28;20550;-86
2024/01/07 20:23:04;;;;;;;9.33;6.73;;;;;;;;;;5066171;28;21100;-86
2024/01/07 20:26:08;;;;;;;9.93;6.90;;;;;;;;;;5054359;28;20606;-86
2024/01/07 20:29:12;;;;;;;12.20;7.33;;;;;;;;;;5065902;28;20534;-86
2024/01/07 20:32:16;;;;;;;9.07;6.60;;;;;;;;;;5065728;28;20538;-86
2024/01/07 20:35:21;;;;;;;13.00;6.73;;;;;;;;;;5054287;28;20617;-86
2024/01/07 20:38:26;;;;;;;10.93;7.00;;;;;;;;;;5066003;28;20542;-86
2024/01/07 20:41:30;;;;;;;10.07;6.43;;;;;;;;;;5066774;28;20554;-86
2024/01/07 20:44:35;;;;;;;9.90;6.77;;;;;;;;;;5054596;28;20617;-86
2024/01/07 20:47:39;;;;;;;10.77;6.13;;;;;;;;;;5055165;28;20538;-86
2024/01/07 20:50:43;;;;;;;7.90;6.27;;;;;;;;;;5078318;28;20546;-86
2024/01/07 20:53:47;;;;;;;9.70;6.53;;;;;;;;;;5054191;28;20637;-86
2024/01/07 20:56:51;;;;;;;9.07;5.93;;;;;;;;;;5065536;28;20546;-86
2024/01/07 20:59:56;;;;;;;8.53;5.83;;;;;;;;;;5078583;28;20538;-86
2024/01/07 21:03:00;;;;;;;8.40;6.03;;;;;;;;;;5066552;28;20546;-86
2024/01/07 21:06:04;;;;;;;7.77;6.20;;;;;;;;;;5066176;28;20590;-86
2024/01/07 21:09:09;;;;;;;8.33;5.97;;;;;;;;;;5054132;28;20546;-86
2024/01/07 21:12:13;;;;;;;8.60;6.00;;;;;;;;;;5076838;28;20558;-86
2024/01/07 21:15:17;;;;;;;8.53;6.53;;;;;;;;;;5053767;28;20606;-86
2024/01/07 21:18:21;;;;;;;7.97;5.73;;;;;;;;;;5053808;28;20554;-86
2024/01/07 21:21:26;;;;;;;12.40;6.43;;;;;;;;;;5053500;28;20534;-86
2024/01/07 21:24:29;;;;;;;7.17;5.40;;;;;;;;;;5065359;28;20621;-86
2024/01/07 21:27:34;;;;;;;8.23;5.93;;;;;;;;;;5076933;28;20543;-86
2024/01/07 21:30:38;;;;;;;7.13;5.60;;;;;;;;;;5065070;28;20543;-86
2024/01/07 21:33:42;;;;;;;8.70;5.67;;;;;;;;;;5064569;28;20618;-86
2024/01/07 21:36:48;;;;;;;10.93;5.80;;;;;;;;;;5053955;28;20538;-86
2024/01/07 21:39:55;;;;;;;8.77;5.80;;;;;;;;;;5053387;28;20883;-86
2024/01/07 21:42:59;;;;;;;7.10;5.03;;;;;;;;;;5052614;28;21097;-86
2024/01/07 21:46:10;;;;;;;14.17;8.83;;;;;;;;;;5053029;28;20597;-86
2024/01/07 21:49:14;;;;;;;8.07;5.87;;;;;;;;;;5053217;28;20550;-86
2024/01/07 21:52:25;;;;;;;9.77;6.23;;;;;;;;;;5076117;28;20538;-86
2024/01/07 21:55:32;;;;;;;8.37;6.00;;;;;;;;;;5064486;28;20683;-86
2024/01/07 21:58:37;;;;;;;10.37;5.90;;;;;;;;;;5064464;28;20535;-86
2024/01/07 22:01:42;;;;;;;10.93;5.00;;;;;;;;;;5076627;28;20542;-86
2024/01/07 22:04:49;;;;;;;7.10;5.23;;;;;;;;;;5052463;28;20979;-86
2024/01/07 22:07:53;;;;;;;6.27;5.00;;;;;;;;;;5052949;28;20523;-86
2024/01/07 22:10:57;;;;;;;5.93;5.00;;;;;;;;;;5041661;28;20562;-86
2024/01/07 22:14:01;;;;;;;9.10;5.00;;;;;;;;;;5076016;28;20621;-86
2024/01/07 22:17:05;;;;;;;6.07;4.97;;;;;;;;;;5053607;28;20868;-86
2024/01/07 22:20:11;;;;;;;6.77;4.30;;;;;;;;;;5041323;28;20876;-86
2024/01/07 22:23:15;;;;;;;6.87;4.70;;;;;;;;;;5052573;28;20538;-86
2024/01/07 22:26:20;;;;;;;6.33;4.60;;;;;;;;;;5052103;28;20606;-86
2024/01/07 22:29:24;;;;;;;8.03;4.80;;;;;;;;;;5052107;28;20546;-86
2024/01/07 22:32:28;;;;;;;6.90;4.43;;;;;;;;;;5063486;28;20538;-87
2024/01/07 22:35:32;;;;;;;7.10;4.77;;;;;;;;;;5063695;28;20951;-86
2024/01/07 22:38:36;;;;;;;6.67;4.37;;;;;;;;;;5063931;28;21062;-86
2024/01/07 22:41:44;;;;;;;8.77;4.80;;;;;;;;;;5063885;28;20534;-86
2024/01/07 22:44:49;;;;;;;5.73;4.60;;;;;;;;;;5064098;28;20622;-87
2024/01/07 22:47:54;;;;;;;6.60;4.43;;;;;;;;;;5063321;28;20526;-87
2024/01/07 22:51:01;;;;;;;7.07;4.40;;;;;;;;;;5075103;28;20543;-87
2024/01/07 22:54:04;;;;;;;6.20;4.53;;;;;;;;;;5063506;28;20645;-86
2024/01/07 22:57:09;;;;;;;6.33;4.73;;;;;;;;;;5053015;28;20538;-86
2024/01/07 23:00:15;;;;;;;5.70;4.27;;;;;;;;;;5064291;28;20542;-86
2024/01/07 23:03:18;;;;;;;6.67;4.70;;;;;;;;;;5051868;28;20554;-86
2024/01/07 23:06:23;;;;;;;5.50;4.27;;;;;;;;;;5052885;28;20590;-86
2024/01/07 23:09:27;;;;;;;4.90;3.70;;;;;;;;;;5077642;28;20872;-86
2024/01/07 23:12:31;;;;;;;5.60;3.93;;;;;;;;;;5052934;28;20538;-86